sensor_id;sensor_type;location;lat;lon;timestamp;P1;durP1;ratioP1;P2;durP2;ratioP2
43124;SDS011;49182;50.788;7.318;2022-12-29T00:00:06;1.00;;;0.43;;
43124;SDS011;49182;50.788;7.318;2022-12-29T00:02:40;1.10;;;0.60;;
43124;SDS011;49182;50.788;7.318;2022-12-29T00:05:07;1.58;;;0.68;;
43124;SDS011;49182;50.788;7.318;2022-12-29T00:07:36;1.05;;;0.50;;
43124;SDS011;49182;50.788;7.318;2022-12-29T00:10:03;1.58;;;0.80;;
43124;SDS011;49182;50.788;7.318;2022-12-29T00:12:30;3.97;;;0.50;;
43124;SDS011;49182;50.788;7.318;2022-12-29T00:14:57;0.98;;;0.47;;
43124;SDS011;49182;50.788;7.318;2022-12-29T00:17:23;3.17;;;0.70;;
43124;SDS011;49182;50.788;7.318;2022-12-29T00:19:50;1.63;;;0.50;;
43124;SDS011;49182;50.788;7.318;2022-12-29T00:22:16;2.58;;;1.60;;
43124;SDS011;49182;50.788;7.318;2022-12-29T00:24:45;0.88;;;0.47;;
43124;SDS011;49182;50.788;7.318;2022-12-29T00:27:12;0.50;;;0.30;;
43124;SDS011;49182;50.788;7.318;2022-12-29T00:29:39;0.80;;;0.40;;
43124;SDS011;49182;50.788;7.318;2022-12-29T00:32:06;3.42;;;1.35;;
43124;SDS011;49182;50.788;7.318;2022-12-29T00:34:33;1.40;;;0.50;;
43124;SDS011;49182;50.788;7.318;2022-12-29T00:37:01;1.25;;;0.60;;
43124;SDS011;49182;50.788;7.318;2022-12-29T00:39:27;0.88;;;0.45;;
43124;SDS011;49182;50.788;7.318;2022-12-29T00:41:55;1.88;;;0.40;;
43124;SDS011;49182;50.788;7.318;2022-12-29T00:44:22;0.70;;;0.40;;
43124;SDS011;49182;50.788;7.318;2022-12-29T00:46:48;1.35;;;0.50;;
43124;SDS011;49182;50.788;7.318;2022-12-29T00:49:15;3.17;;;0.55;;
43124;SDS011;49182;50.788;7.318;2022-12-29T00:51:43;1.13;;;0.50;;
43124;SDS011;49182;50.788;7.318;2022-12-29T00:54:10;0.52;;;0.32;;
43124;SDS011;49182;50.788;7.318;2022-12-29T00:56:37;3.03;;;0.63;;
43124;SDS011;49182;50.788;7.318;2022-12-29T00:59:05;2.20;;;0.40;;
43124;SDS011;49182;50.788;7.318;2022-12-29T01:01:33;0.70;;;0.30;;
43124;SDS011;49182;50.788;7.318;2022-12-29T01:04:01;0.93;;;0.30;;
43124;SDS011;49182;50.788;7.318;2022-12-29T01:06:30;1.33;;;0.50;;
43124;SDS011;49182;50.788;7.318;2022-12-29T01:08:56;1.10;;;0.32;;
43124;SDS011;49182;50.788;7.318;2022-12-29T01:11:23;1.35;;;0.50;;
43124;SDS011;49182;50.788;7.318;2022-12-29T01:13:49;0.40;;;0.20;;
43124;SDS011;49182;50.788;7.318;2022-12-29T01:16:17;0.98;;;0.40;;
43124;SDS011;49182;50.788;7.318;2022-12-29T01:18:44;0.50;;;0.32;;
43124;SDS011;49182;50.788;7.318;2022-12-29T01:21:11;1.00;;;0.32;;
43124;SDS011;49182;50.788;7.318;2022-12-29T01:23:37;0.90;;;0.30;;
43124;SDS011;49182;50.788;7.318;2022-12-29T01:26:08;0.85;;;0.50;;
43124;SDS011;49182;50.788;7.318;2022-12-29T01:28:35;0.60;;;0.30;;
43124;SDS011;49182;50.788;7.318;2022-12-29T01:31:02;0.25;;;0.20;;
43124;SDS011;49182;50.788;7.318;2022-12-29T01:33:31;0.55;;;0.32;;
43124;SDS011;49182;50.788;7.318;2022-12-29T01:35:59;0.60;;;0.22;;
43124;SDS011;49182;50.788;7.318;2022-12-29T01:38:26;1.17;;;0.30;;
43124;SDS011;49182;50.788;7.318;2022-12-29T01:40:52;1.73;;;0.30;;
43124;SDS011;49182;50.788;7.318;2022-12-29T01:43:19;0.68;;;0.30;;
43124;SDS011;49182;50.788;7.318;2022-12-29T01:45:48;0.47;;;0.40;;
43124;SDS011;49182;50.788;7.318;2022-12-29T01:50:49;1.63;;;0.60;;
43124;SDS011;49182;50.788;7.318;2022-12-29T01:53:19;1.17;;;0.50;;
43124;SDS011;49182;50.788;7.318;2022-12-29T01:55:51;1.33;;;0.57;;
43124;SDS011;49182;50.788;7.318;2022-12-29T01:58:22;0.80;;;0.30;;
43124;SDS011;49182;50.788;7.318;2022-12-29T02:00:50;0.55;;;0.30;;
43124;SDS011;49182;50.788;7.318;2022-12-29T02:03:17;0.47;;;0.22;;
43124;SDS011;49182;50.788;7.318;2022-12-29T02:05:49;1.77;;;0.40;;
43124;SDS011;49182;50.788;7.318;2022-12-29T02:08:20;0.85;;;0.40;;
43124;SDS011;49182;50.788;7.318;2022-12-29T02:10:49;1.02;;;0.30;;
43124;SDS011;49182;50.788;7.318;2022-12-29T02:13:22;1.17;;;0.40;;
43124;SDS011;49182;50.788;7.318;2022-12-29T02:15:51;0.52;;;0.30;;
43124;SDS011;49182;50.788;7.318;2022-12-29T02:18:30;1.63;;;0.50;;
43124;SDS011;49182;50.788;7.318;2022-12-29T02:21:14;0.43;;;0.25;;
43124;SDS011;49182;50.788;7.318;2022-12-29T02:24:16;0.63;;;0.30;;
43124;SDS011;49182;50.788;7.318;2022-12-29T02:30:03;1.85;;;0.80;;
43124;SDS011;49182;50.788;7.318;2022-12-29T02:32:37;0.63;;;0.30;;
43124;SDS011;49182;50.788;7.318;2022-12-29T02:35:14;0.77;;;0.30;;
43124;SDS011;49182;50.788;7.318;2022-12-29T02:37:48;1.77;;;0.50;;
43124;SDS011;49182;50.788;7.318;2022-12-29T02:40:25;0.73;;;0.30;;
43124;SDS011;49182;50.788;7.318;2022-12-29T02:43:01;1.08;;;0.50;;
43124;SDS011;49182;50.788;7.318;2022-12-29T02:45:36;1.40;;;0.40;;
43124;SDS011;49182;50.788;7.318;2022-12-29T02:48:16;1.80;;;0.68;;
43124;SDS011;49182;50.788;7.318;2022-12-29T02:50:50;0.82;;;0.40;;
43124;SDS011;49182;50.788;7.318;2022-12-29T02:53:22;1.27;;;0.50;;
43124;SDS011;49182;50.788;7.318;2022-12-29T02:55:50;1.33;;;0.35;;
43124;SDS011;49182;50.788;7.318;2022-12-29T02:58:19;0.82;;;0.47;;
43124;SDS011;49182;50.788;7.318;2022-12-29T03:00:52;1.00;;;0.43;;
43124;SDS011;49182;50.788;7.318;2022-12-29T03:03:35;1.42;;;0.95;;
43124;SDS011;49182;50.788;7.318;2022-12-29T03:06:17;1.15;;;0.47;;
43124;SDS011;49182;50.788;7.318;2022-12-29T03:08:58;2.10;;;0.50;;
43124;SDS011;49182;50.788;7.318;2022-12-29T03:11:30;1.15;;;0.40;;
43124;SDS011;49182;50.788;7.318;2022-12-29T03:14:02;1.75;;;0.30;;
43124;SDS011;49182;50.788;7.318;2022-12-29T03:16:35;1.45;;;0.50;;
43124;SDS011;49182;50.788;7.318;2022-12-29T03:19:15;1.40;;;0.40;;
43124;SDS011;49182;50.788;7.318;2022-12-29T03:21:47;0.63;;;0.30;;
43124;SDS011;49182;50.788;7.318;2022-12-29T03:24:20;1.27;;;0.50;;
43124;SDS011;49182;50.788;7.318;2022-12-29T03:26:54;1.33;;;0.47;;
43124;SDS011;49182;50.788;7.318;2022-12-29T03:29:26;1.67;;;0.60;;
43124;SDS011;49182;50.788;7.318;2022-12-29T03:31:55;1.90;;;0.85;;
43124;SDS011;49182;50.788;7.318;2022-12-29T03:34:25;1.70;;;0.40;;
43124;SDS011;49182;50.788;7.318;2022-12-29T03:36:55;1.13;;;0.50;;
43124;SDS011;49182;50.788;7.318;2022-12-29T03:39:28;0.90;;;0.40;;
43124;SDS011;49182;50.788;7.318;2022-12-29T03:41:57;1.60;;;0.52;;
43124;SDS011;49182;50.788;7.318;2022-12-29T03:44:31;1.98;;;0.60;;
43124;SDS011;49182;50.788;7.318;2022-12-29T03:47:00;1.25;;;0.40;;
43124;SDS011;49182;50.788;7.318;2022-12-29T03:49:28;0.85;;;0.40;;
43124;SDS011;49182;50.788;7.318;2022-12-29T03:51:55;0.90;;;0.50;;
43124;SDS011;49182;50.788;7.318;2022-12-29T03:54:23;0.50;;;0.30;;
43124;SDS011;49182;50.788;7.318;2022-12-29T03:56:52;1.15;;;0.50;;
43124;SDS011;49182;50.788;7.318;2022-12-29T03:59:28;1.02;;;0.43;;
43124;SDS011;49182;50.788;7.318;2022-12-29T04:01:55;0.68;;;0.40;;
43124;SDS011;49182;50.788;7.318;2022-12-29T04:04:22;1.55;;;0.50;;
43124;SDS011;49182;50.788;7.318;2022-12-29T04:06:50;0.95;;;0.40;;
43124;SDS011;49182;50.788;7.318;2022-12-29T04:09:17;1.15;;;0.45;;
43124;SDS011;49182;50.788;7.318;2022-12-29T04:11:47;1.08;;;0.40;;
43124;SDS011;49182;50.788;7.318;2022-12-29T04:14:13;2.17;;;0.40;;
43124;SDS011;49182;50.788;7.318;2022-12-29T04:16:40;1.02;;;0.40;;
43124;SDS011;49182;50.788;7.318;2022-12-29T04:19:07;0.75;;;0.40;;
43124;SDS011;49182;50.788;7.318;2022-12-29T04:21:36;0.93;;;0.60;;
43124;SDS011;49182;50.788;7.318;2022-12-29T04:24:05;1.10;;;0.40;;
43124;SDS011;49182;50.788;7.318;2022-12-29T04:26:37;0.85;;;0.50;;
43124;SDS011;49182;50.788;7.318;2022-12-29T04:29:25;0.95;;;0.40;;
43124;SDS011;49182;50.788;7.318;2022-12-29T04:32:08;0.55;;;0.30;;
43124;SDS011;49182;50.788;7.318;2022-12-29T04:34:40;0.63;;;0.30;;
43124;SDS011;49182;50.788;7.318;2022-12-29T04:37:07;0.77;;;0.30;;
43124;SDS011;49182;50.788;7.318;2022-12-29T04:39:35;0.77;;;0.38;;
43124;SDS011;49182;50.788;7.318;2022-12-29T04:42:03;0.75;;;0.40;;
43124;SDS011;49182;50.788;7.318;2022-12-29T04:44:30;0.85;;;0.32;;
43124;SDS011;49182;50.788;7.318;2022-12-29T04:47:12;1.05;;;0.30;;
43124;SDS011;49182;50.788;7.318;2022-12-29T04:50:00;1.17;;;0.47;;
43124;SDS011;49182;50.788;7.318;2022-12-29T04:52:33;2.95;;;0.32;;
43124;SDS011;49182;50.788;7.318;2022-12-29T04:55:03;0.93;;;0.30;;
43124;SDS011;49182;50.788;7.318;2022-12-29T04:57:30;1.35;;;0.60;;
43124;SDS011;49182;50.788;7.318;2022-12-29T04:59:59;1.05;;;0.35;;
43124;SDS011;49182;50.788;7.318;2022-12-29T05:02:26;0.43;;;0.30;;
43124;SDS011;49182;50.788;7.318;2022-12-29T05:04:55;0.43;;;0.30;;
43124;SDS011;49182;50.788;7.318;2022-12-29T05:07:22;1.33;;;0.35;;
43124;SDS011;49182;50.788;7.318;2022-12-29T05:09:50;5.00;;;0.57;;
43124;SDS011;49182;50.788;7.318;2022-12-29T05:12:18;1.52;;;0.40;;
43124;SDS011;49182;50.788;7.318;2022-12-29T05:14:55;1.50;;;0.50;;
43124;SDS011;49182;50.788;7.318;2022-12-29T05:17:23;0.32;;;0.20;;
43124;SDS011;49182;50.788;7.318;2022-12-29T05:19:50;0.68;;;0.30;;
43124;SDS011;49182;50.788;7.318;2022-12-29T05:22:17;1.38;;;0.30;;
43124;SDS011;49182;50.788;7.318;2022-12-29T05:24:44;1.15;;;0.32;;
43124;SDS011;49182;50.788;7.318;2022-12-29T05:27:11;0.60;;;0.30;;
43124;SDS011;49182;50.788;7.318;2022-12-29T05:29:56;1.00;;;0.40;;
43124;SDS011;49182;50.788;7.318;2022-12-29T05:32:24;2.72;;;0.50;;
43124;SDS011;49182;50.788;7.318;2022-12-29T05:34:52;1.08;;;0.30;;
43124;SDS011;49182;50.788;7.318;2022-12-29T05:37:19;1.23;;;0.40;;
43124;SDS011;49182;50.788;7.318;2022-12-29T05:39:45;2.60;;;0.68;;
43124;SDS011;49182;50.788;7.318;2022-12-29T05:42:13;3.20;;;0.47;;
43124;SDS011;49182;50.788;7.318;2022-12-29T05:45:14;1.20;;;0.65;;
43124;SDS011;49182;50.788;7.318;2022-12-29T05:47:52;0.90;;;0.45;;
43124;SDS011;49182;50.788;7.318;2022-12-29T05:50:46;1.15;;;0.47;;
43124;SDS011;49182;50.788;7.318;2022-12-29T05:53:15;1.40;;;0.50;;
43124;SDS011;49182;50.788;7.318;2022-12-29T05:55:43;1.75;;;0.50;;
43124;SDS011;49182;50.788;7.318;2022-12-29T05:58:15;1.80;;;0.50;;
43124;SDS011;49182;50.788;7.318;2022-12-29T06:00:44;1.58;;;0.60;;
43124;SDS011;49182;50.788;7.318;2022-12-29T06:03:11;1.40;;;0.60;;
43124;SDS011;49182;50.788;7.318;2022-12-29T06:05:38;1.70;;;0.60;;
43124;SDS011;49182;50.788;7.318;2022-12-29T06:08:05;1.00;;;0.50;;
43124;SDS011;49182;50.788;7.318;2022-12-29T06:10:33;1.23;;;0.55;;
43124;SDS011;49182;50.788;7.318;2022-12-29T06:13:03;0.70;;;0.40;;
43124;SDS011;49182;50.788;7.318;2022-12-29T06:15:30;1.20;;;0.40;;
43124;SDS011;49182;50.788;7.318;2022-12-29T06:17:59;1.40;;;0.50;;
43124;SDS011;49182;50.788;7.318;2022-12-29T06:20:26;2.35;;;1.15;;
43124;SDS011;49182;50.788;7.318;2022-12-29T06:22:53;0.93;;;0.50;;
43124;SDS011;49182;50.788;7.318;2022-12-29T06:25:19;2.38;;;0.63;;
43124;SDS011;49182;50.788;7.318;2022-12-29T06:27:49;3.30;;;0.80;;
43124;SDS011;49182;50.788;7.318;2022-12-29T06:30:16;2.92;;;0.70;;
43124;SDS011;49182;50.788;7.318;2022-12-29T06:32:43;1.50;;;0.73;;
43124;SDS011;49182;50.788;7.318;2022-12-29T06:35:14;1.80;;;0.50;;
43124;SDS011;49182;50.788;7.318;2022-12-29T06:37:48;3.30;;;0.75;;
43124;SDS011;49182;50.788;7.318;2022-12-29T06:40:15;1.45;;;0.68;;
43124;SDS011;49182;50.788;7.318;2022-12-29T06:43:05;1.75;;;0.68;;
43124;SDS011;49182;50.788;7.318;2022-12-29T06:45:52;2.88;;;0.60;;
43124;SDS011;49182;50.788;7.318;2022-12-29T06:48:19;2.45;;;0.70;;
43124;SDS011;49182;50.788;7.318;2022-12-29T06:50:47;1.38;;;0.60;;
43124;SDS011;49182;50.788;7.318;2022-12-29T06:53:13;2.80;;;0.68;;
43124;SDS011;49182;50.788;7.318;2022-12-29T06:55:41;2.30;;;0.80;;
43124;SDS011;49182;50.788;7.318;2022-12-29T06:58:07;2.92;;;0.75;;
43124;SDS011;49182;50.788;7.318;2022-12-29T07:00:34;2.03;;;0.80;;
43124;SDS011;49182;50.788;7.318;2022-12-29T07:03:01;2.78;;;0.73;;
43124;SDS011;49182;50.788;7.318;2022-12-29T07:05:28;3.38;;;0.70;;
43124;SDS011;49182;50.788;7.318;2022-12-29T07:07:56;1.15;;;0.50;;
43124;SDS011;49182;50.788;7.318;2022-12-29T07:10:23;3.22;;;0.65;;
43124;SDS011;49182;50.788;7.318;2022-12-29T07:12:50;2.60;;;0.55;;
43124;SDS011;49182;50.788;7.318;2022-12-29T07:15:16;0.55;;;0.40;;
43124;SDS011;49182;50.788;7.318;2022-12-29T07:17:43;2.80;;;0.60;;
43124;SDS011;49182;50.788;7.318;2022-12-29T07:20:10;2.17;;;0.60;;
43124;SDS011;49182;50.788;7.318;2022-12-29T07:22:37;2.08;;;0.70;;
43124;SDS011;49182;50.788;7.318;2022-12-29T07:25:05;0.80;;;0.50;;
43124;SDS011;49182;50.788;7.318;2022-12-29T07:27:32;1.50;;;0.60;;
43124;SDS011;49182;50.788;7.318;2022-12-29T07:29:58;1.13;;;0.50;;
43124;SDS011;49182;50.788;7.318;2022-12-29T07:32:25;1.98;;;0.60;;
43124;SDS011;49182;50.788;7.318;2022-12-29T07:34:52;1.08;;;0.60;;
43124;SDS011;49182;50.788;7.318;2022-12-29T07:37:18;2.78;;;0.57;;
43124;SDS011;49182;50.788;7.318;2022-12-29T07:39:45;1.20;;;0.65;;
43124;SDS011;49182;50.788;7.318;2022-12-29T07:42:13;2.20;;;0.60;;
43124;SDS011;49182;50.788;7.318;2022-12-29T07:44:42;1.50;;;0.60;;
43124;SDS011;49182;50.788;7.318;2022-12-29T07:47:15;1.30;;;0.60;;
43124;SDS011;49182;50.788;7.318;2022-12-29T07:49:41;1.75;;;0.50;;
43124;SDS011;49182;50.788;7.318;2022-12-29T07:52:08;1.55;;;0.70;;
43124;SDS011;49182;50.788;7.318;2022-12-29T07:54:35;1.67;;;0.52;;
43124;SDS011;49182;50.788;7.318;2022-12-29T07:57:01;2.15;;;0.60;;
43124;SDS011;49182;50.788;7.318;2022-12-29T07:59:29;1.73;;;0.50;;
43124;SDS011;49182;50.788;7.318;2022-12-29T08:01:56;4.32;;;1.23;;
43124;SDS011;49182;50.788;7.318;2022-12-29T08:04:23;2.75;;;1.05;;
43124;SDS011;49182;50.788;7.318;2022-12-29T08:06:49;3.63;;;0.60;;
43124;SDS011;49182;50.788;7.318;2022-12-29T08:09:16;1.58;;;0.60;;
43124;SDS011;49182;50.788;7.318;2022-12-29T08:11:49;1.20;;;0.40;;
43124;SDS011;49182;50.788;7.318;2022-12-29T08:14:16;1.02;;;0.40;;
43124;SDS011;49182;50.788;7.318;2022-12-29T08:16:44;3.03;;;0.30;;
43124;SDS011;49182;50.788;7.318;2022-12-29T08:19:11;0.90;;;0.40;;
43124;SDS011;49182;50.788;7.318;2022-12-29T08:21:38;1.10;;;0.47;;
43124;SDS011;49182;50.788;7.318;2022-12-29T08:24:05;1.58;;;0.75;;
43124;SDS011;49182;50.788;7.318;2022-12-29T08:26:32;3.30;;;0.82;;
43124;SDS011;49182;50.788;7.318;2022-12-29T08:28:58;1.40;;;0.60;;
43124;SDS011;49182;50.788;7.318;2022-12-29T08:31:25;2.55;;;0.75;;
43124;SDS011;49182;50.788;7.318;2022-12-29T08:33:53;2.30;;;0.90;;
43124;SDS011;49182;50.788;7.318;2022-12-29T08:36:20;2.38;;;0.70;;
43124;SDS011;49182;50.788;7.318;2022-12-29T08:38:46;2.03;;;0.90;;
43124;SDS011;49182;50.788;7.318;2022-12-29T08:41:13;1.98;;;0.95;;
43124;SDS011;49182;50.788;7.318;2022-12-29T08:43:39;0.88;;;0.40;;
43124;SDS011;49182;50.788;7.318;2022-12-29T08:46:06;2.95;;;0.68;;
43124;SDS011;49182;50.788;7.318;2022-12-29T08:48:33;1.85;;;0.75;;
43124;SDS011;49182;50.788;7.318;2022-12-29T08:51:01;4.50;;;0.60;;
43124;SDS011;49182;50.788;7.318;2022-12-29T08:53:28;1.33;;;0.50;;
43124;SDS011;49182;50.788;7.318;2022-12-29T08:55:56;5.13;;;1.13;;
43124;SDS011;49182;50.788;7.318;2022-12-29T08:58:37;2.80;;;0.68;;
43124;SDS011;49182;50.788;7.318;2022-12-29T09:01:04;3.83;;;0.70;;
43124;SDS011;49182;50.788;7.318;2022-12-29T09:03:31;1.48;;;0.65;;
43124;SDS011;49182;50.788;7.318;2022-12-29T09:06:19;2.83;;;0.50;;
43124;SDS011;49182;50.788;7.318;2022-12-29T09:08:46;4.10;;;0.90;;
43124;SDS011;49182;50.788;7.318;2022-12-29T09:11:14;2.63;;;0.60;;
43124;SDS011;49182;50.788;7.318;2022-12-29T09:13:42;6.20;;;2.38;;
43124;SDS011;49182;50.788;7.318;2022-12-29T09:16:08;2.53;;;0.93;;
43124;SDS011;49182;50.788;7.318;2022-12-29T09:18:35;3.08;;;0.90;;
43124;SDS011;49182;50.788;7.318;2022-12-29T09:21:03;4.60;;;1.15;;
43124;SDS011;49182;50.788;7.318;2022-12-29T09:23:32;2.70;;;1.15;;
43124;SDS011;49182;50.788;7.318;2022-12-29T09:26:00;4.97;;;0.98;;
43124;SDS011;49182;50.788;7.318;2022-12-29T09:28:27;1.83;;;0.60;;
43124;SDS011;49182;50.788;7.318;2022-12-29T09:30:54;3.40;;;1.00;;
43124;SDS011;49182;50.788;7.318;2022-12-29T09:33:21;4.70;;;0.90;;
43124;SDS011;49182;50.788;7.318;2022-12-29T09:35:49;4.72;;;0.90;;
43124;SDS011;49182;50.788;7.318;2022-12-29T09:38:17;2.88;;;0.80;;
43124;SDS011;49182;50.788;7.318;2022-12-29T09:40:46;2.17;;;0.80;;
43124;SDS011;49182;50.788;7.318;2022-12-29T09:43:24;3.75;;;1.00;;
43124;SDS011;49182;50.788;7.318;2022-12-29T09:46:13;6.63;;;1.15;;
43124;SDS011;49182;50.788;7.318;2022-12-29T09:48:50;3.28;;;0.75;;
43124;SDS011;49182;50.788;7.318;2022-12-29T09:51:23;1.65;;;0.63;;
43124;SDS011;49182;50.788;7.318;2022-12-29T09:53:52;4.40;;;1.10;;
43124;SDS011;49182;50.788;7.318;2022-12-29T09:58:54;5.90;;;1.95;;
43124;SDS011;49182;50.788;7.318;2022-12-29T10:01:26;4.35;;;1.17;;
43124;SDS011;49182;50.788;7.318;2022-12-29T10:03:57;2.95;;;0.90;;
43124;SDS011;49182;50.788;7.318;2022-12-29T10:06:25;6.35;;;1.10;;
43124;SDS011;49182;50.788;7.318;2022-12-29T10:09:01;4.80;;;0.80;;
43124;SDS011;49182;50.788;7.318;2022-12-29T10:11:39;3.80;;;0.80;;
43124;SDS011;49182;50.788;7.318;2022-12-29T10:14:23;3.30;;;0.73;;
43124;SDS011;49182;50.788;7.318;2022-12-29T10:17:00;2.20;;;0.77;;
43124;SDS011;49182;50.788;7.318;2022-12-29T10:19:38;4.82;;;1.10;;
43124;SDS011;49182;50.788;7.318;2022-12-29T10:22:28;4.32;;;0.70;;
43124;SDS011;49182;50.788;7.318;2022-12-29T10:25:08;4.05;;;0.90;;
43124;SDS011;49182;50.788;7.318;2022-12-29T10:27:41;5.53;;;1.25;;
43124;SDS011;49182;50.788;7.318;2022-12-29T10:30:11;5.10;;;0.88;;
43124;SDS011;49182;50.788;7.318;2022-12-29T10:32:39;3.80;;;0.60;;
43124;SDS011;49182;50.788;7.318;2022-12-29T10:35:12;6.07;;;1.35;;
43124;SDS011;49182;50.788;7.318;2022-12-29T10:37:45;4.57;;;0.60;;
43124;SDS011;49182;50.788;7.318;2022-12-29T10:40:19;7.10;;;1.35;;
43124;SDS011;49182;50.788;7.318;2022-12-29T10:42:54;4.13;;;0.95;;
43124;SDS011;49182;50.788;7.318;2022-12-29T10:47:53;3.50;;;0.85;;
43124;SDS011;49182;50.788;7.318;2022-12-29T10:50:24;2.78;;;0.90;;
43124;SDS011;49182;50.788;7.318;2022-12-29T10:52:52;2.55;;;0.63;;
43124;SDS011;49182;50.788;7.318;2022-12-29T10:55:21;3.88;;;0.82;;
43124;SDS011;49182;50.788;7.318;2022-12-29T10:57:59;2.92;;;0.77;;
43124;SDS011;49182;50.788;7.318;2022-12-29T11:00:28;3.83;;;0.90;;
43124;SDS011;49182;50.788;7.318;2022-12-29T11:06:00;8.10;;;1.25;;
43124;SDS011;49182;50.788;7.318;2022-12-29T11:08:34;4.10;;;0.80;;
43124;SDS011;49182;50.788;7.318;2022-12-29T11:11:04;2.90;;;0.80;;
43124;SDS011;49182;50.788;7.318;2022-12-29T11:13:34;3.13;;;1.33;;
43124;SDS011;49182;50.788;7.318;2022-12-29T11:16:12;5.20;;;1.02;;
43124;SDS011;49182;50.788;7.318;2022-12-29T11:18:39;3.28;;;0.70;;
43124;SDS011;49182;50.788;7.318;2022-12-29T11:21:09;3.00;;;0.80;;
43124;SDS011;49182;50.788;7.318;2022-12-29T11:23:55;4.32;;;0.90;;
43124;SDS011;49182;50.788;7.318;2022-12-29T11:26:23;4.35;;;0.70;;
43124;SDS011;49182;50.788;7.318;2022-12-29T11:31:49;4.70;;;0.80;;
43124;SDS011;49182;50.788;7.318;2022-12-29T11:34:19;4.47;;;1.20;;
43124;SDS011;49182;50.788;7.318;2022-12-29T11:36:47;6.88;;;1.10;;
43124;SDS011;49182;50.788;7.318;2022-12-29T11:42:05;8.55;;;0.93;;
43124;SDS011;49182;50.788;7.318;2022-12-29T11:44:41;4.45;;;0.80;;
43124;SDS011;49182;50.788;7.318;2022-12-29T11:49:40;5.75;;;1.08;;
43124;SDS011;49182;50.788;7.318;2022-12-29T11:52:06;5.72;;;0.98;;
43124;SDS011;49182;50.788;7.318;2022-12-29T11:54:34;3.10;;;0.90;;
43124;SDS011;49182;50.788;7.318;2022-12-29T11:57:08;3.33;;;0.77;;
43124;SDS011;49182;50.788;7.318;2022-12-29T11:59:38;4.10;;;0.90;;
43124;SDS011;49182;50.788;7.318;2022-12-29T12:02:23;3.95;;;0.77;;
43124;SDS011;49182;50.788;7.318;2022-12-29T12:05:10;3.08;;;0.77;;
43124;SDS011;49182;50.788;7.318;2022-12-29T12:07:43;3.95;;;0.90;;
43124;SDS011;49182;50.788;7.318;2022-12-29T12:10:19;3.20;;;0.73;;
43124;SDS011;49182;50.788;7.318;2022-12-29T12:12:52;7.63;;;1.20;;
43124;SDS011;49182;50.788;7.318;2022-12-29T12:15:29;2.97;;;0.80;;
43124;SDS011;49182;50.788;7.318;2022-12-29T12:18:08;6.85;;;1.23;;
43124;SDS011;49182;50.788;7.318;2022-12-29T12:20:41;3.88;;;1.30;;
43124;SDS011;49182;50.788;7.318;2022-12-29T12:23:16;4.50;;;1.23;;
43124;SDS011;49182;50.788;7.318;2022-12-29T12:25:55;6.43;;;1.33;;
43124;SDS011;49182;50.788;7.318;2022-12-29T12:28:26;4.28;;;0.98;;
43124;SDS011;49182;50.788;7.318;2022-12-29T12:31:04;4.40;;;1.08;;
43124;SDS011;49182;50.788;7.318;2022-12-29T12:33:38;5.88;;;1.30;;
43124;SDS011;49182;50.788;7.318;2022-12-29T12:36:20;6.47;;;1.15;;
43124;SDS011;49182;50.788;7.318;2022-12-29T12:38:55;6.05;;;1.05;;
43124;SDS011;49182;50.788;7.318;2022-12-29T12:41:30;5.80;;;2.47;;
43124;SDS011;49182;50.788;7.318;2022-12-29T12:44:09;5.55;;;1.35;;
43124;SDS011;49182;50.788;7.318;2022-12-29T12:52:44;5.93;;;1.17;;
43124;SDS011;49182;50.788;7.318;2022-12-29T12:55:39;5.63;;;1.52;;
43124;SDS011;49182;50.788;7.318;2022-12-29T12:58:17;8.30;;;1.65;;
43124;SDS011;49182;50.788;7.318;2022-12-29T13:00:55;5.07;;;1.30;;
43124;SDS011;49182;50.788;7.318;2022-12-29T13:03:43;4.40;;;1.10;;
43124;SDS011;49182;50.788;7.318;2022-12-29T13:06:18;6.32;;;1.00;;
43124;SDS011;49182;50.788;7.318;2022-12-29T13:08:59;9.38;;;1.75;;
43124;SDS011;49182;50.788;7.318;2022-12-29T13:11:41;5.70;;;1.42;;
43124;SDS011;49182;50.788;7.318;2022-12-29T13:14:21;4.50;;;1.10;;
43124;SDS011;49182;50.788;7.318;2022-12-29T13:16:59;6.60;;;1.70;;
43124;SDS011;49182;50.788;7.318;2022-12-29T13:19:34;6.00;;;1.08;;
43124;SDS011;49182;50.788;7.318;2022-12-29T13:22:08;6.22;;;1.40;;
43124;SDS011;49182;50.788;7.318;2022-12-29T13:24:46;7.55;;;1.38;;
43124;SDS011;49182;50.788;7.318;2022-12-29T13:27:21;5.78;;;1.55;;
43124;SDS011;49182;50.788;7.318;2022-12-29T13:30:03;3.67;;;1.00;;
43124;SDS011;49182;50.788;7.318;2022-12-29T13:32:37;5.07;;;1.20;;
43124;SDS011;49182;50.788;7.318;2022-12-29T13:35:26;7.32;;;1.33;;
43124;SDS011;49182;50.788;7.318;2022-12-29T13:38:03;4.78;;;1.05;;
43124;SDS011;49182;50.788;7.318;2022-12-29T13:40:38;3.22;;;1.10;;
43124;SDS011;49182;50.788;7.318;2022-12-29T13:45:35;3.03;;;0.88;;
43124;SDS011;49182;50.788;7.318;2022-12-29T13:48:03;7.82;;;1.02;;
43124;SDS011;49182;50.788;7.318;2022-12-29T13:50:38;3.30;;;0.90;;
43124;SDS011;49182;50.788;7.318;2022-12-29T13:53:09;7.63;;;1.15;;
43124;SDS011;49182;50.788;7.318;2022-12-29T13:55:45;3.30;;;0.98;;
43124;SDS011;49182;50.788;7.318;2022-12-29T13:58:20;6.35;;;0.93;;
43124;SDS011;49182;50.788;7.318;2022-12-29T14:00:57;4.53;;;1.98;;
43124;SDS011;49182;50.788;7.318;2022-12-29T14:03:40;9.52;;;1.00;;
43124;SDS011;49182;50.788;7.318;2022-12-29T14:06:14;4.72;;;1.10;;
43124;SDS011;49182;50.788;7.318;2022-12-29T14:08:42;4.47;;;0.90;;
43124;SDS011;49182;50.788;7.318;2022-12-29T14:11:11;4.10;;;0.93;;
43124;SDS011;49182;50.788;7.318;2022-12-29T14:13:40;5.50;;;0.88;;
43124;SDS011;49182;50.788;7.318;2022-12-29T14:16:10;7.53;;;0.95;;
43124;SDS011;49182;50.788;7.318;2022-12-29T14:18:50;5.77;;;0.90;;
43124;SDS011;49182;50.788;7.318;2022-12-29T14:21:20;5.00;;;1.05;;
43124;SDS011;49182;50.788;7.318;2022-12-29T14:23:50;5.05;;;1.17;;
43124;SDS011;49182;50.788;7.318;2022-12-29T14:26:18;4.93;;;1.17;;
43124;SDS011;49182;50.788;7.318;2022-12-29T14:38:16;6.07;;;1.10;;
43124;SDS011;49182;50.788;7.318;2022-12-29T14:40:45;4.13;;;1.05;;
43124;SDS011;49182;50.788;7.318;2022-12-29T14:43:14;4.20;;;0.90;;
43124;SDS011;49182;50.788;7.318;2022-12-29T14:45:51;5.15;;;1.40;;
43124;SDS011;49182;50.788;7.318;2022-12-29T14:48:30;6.95;;;1.10;;
43124;SDS011;49182;50.788;7.318;2022-12-29T14:51:18;9.30;;;3.13;;
43124;SDS011;49182;50.788;7.318;2022-12-29T14:53:48;7.28;;;1.65;;
43124;SDS011;49182;50.788;7.318;2022-12-29T14:56:17;4.20;;;0.98;;
43124;SDS011;49182;50.788;7.318;2022-12-29T14:58:49;5.85;;;1.10;;
43124;SDS011;49182;50.788;7.318;2022-12-29T15:01:23;4.85;;;1.20;;
43124;SDS011;49182;50.788;7.318;2022-12-29T15:03:54;8.13;;;0.90;;
43124;SDS011;49182;50.788;7.318;2022-12-29T15:06:24;4.50;;;1.45;;
43124;SDS011;49182;50.788;7.318;2022-12-29T15:08:58;3.70;;;1.10;;
43124;SDS011;49182;50.788;7.318;2022-12-29T15:11:31;10.57;;;1.85;;
43124;SDS011;49182;50.788;7.318;2022-12-29T15:14:30;6.32;;;1.58;;
43124;SDS011;49182;50.788;7.318;2022-12-29T15:16:59;6.85;;;1.30;;
43124;SDS011;49182;50.788;7.318;2022-12-29T15:19:27;8.10;;;1.50;;
43124;SDS011;49182;50.788;7.318;2022-12-29T15:21:54;6.07;;;1.20;;
43124;SDS011;49182;50.788;7.318;2022-12-29T15:24:23;6.78;;;1.00;;
43124;SDS011;49182;50.788;7.318;2022-12-29T15:26:51;6.90;;;1.40;;
43124;SDS011;49182;50.788;7.318;2022-12-29T15:29:29;7.13;;;1.50;;
43124;SDS011;49182;50.788;7.318;2022-12-29T15:31:58;6.95;;;1.50;;
43124;SDS011;49182;50.788;7.318;2022-12-29T15:34:29;12.95;;;2.03;;
43124;SDS011;49182;50.788;7.318;2022-12-29T15:36:56;4.88;;;1.10;;
43124;SDS011;49182;50.788;7.318;2022-12-29T15:39:27;4.38;;;1.30;;
43124;SDS011;49182;50.788;7.318;2022-12-29T15:44:23;7.38;;;1.42;;
43124;SDS011;49182;50.788;7.318;2022-12-29T15:46:52;7.93;;;1.10;;
43124;SDS011;49182;50.788;7.318;2022-12-29T15:49:19;9.70;;;1.67;;
43124;SDS011;49182;50.788;7.318;2022-12-29T15:51:46;5.75;;;2.00;;
43124;SDS011;49182;50.788;7.318;2022-12-29T15:54:14;5.13;;;1.33;;